Time;durP1;ratioP1;P1;durP2;ratioP2;P2;SDS_P1;SDS_P2;PMS_P1;PMS_P2;Temp;Humidity;BMP_temperature;BMP_pressure;BME280_temperature;BME280_humidity;BME280_pressure;Samples;Min_cycle;Max_cycle;Signal;HPM_P1;HPM_P2
2021/04/25 00:00:15;;;;;;;7.93;3.38;;;;;;;5.92;53.63;101312.41;5112683;28;20382;-65
2021/04/25 00:02:42;;;;;;;7.85;2.90;;;;;;;5.89;53.71;101311.00;5107262;28;20052;-65
2021/04/25 00:05:12;;;;;;;7.05;3.13;;;;;;;5.85;53.26;101312.63;5099236;28;20055;-65
2021/04/25 00:07:39;;;;;;;6.63;3.42;;;;;;;5.82;53.29;101308.47;5112550;28;20051;-65
2021/04/25 00:10:10;;;;;;;7.45;2.92;;;;;;;5.76;53.24;101306.75;5116334;28;20051;-65
2021/04/25 00:12:40;;;;;;;6.07;3.22;;;;;;;5.68;53.83;101302.50;5116284;28;20063;-65
2021/04/25 00:15:09;;;;;;;8.70;3.83;;;;;;;5.62;54.14;101311.84;5103256;28;20476;-65
2021/04/25 00:17:39;;;;;;;7.75;2.78;;;;;;;5.52;54.46;101306.19;5096405;28;20052;-66
2021/04/25 00:20:10;;;;;;;5.70;3.17;;;;;;;5.44;54.27;101315.81;5096331;28;20056;-66
2021/04/25 00:22:37;;;;;;;5.82;2.90;;;;;;;5.36;54.08;101312.69;5096891;28;20488;-66
2021/04/25 00:25:05;;;;;;;8.32;3.25;;;;;;;5.26;53.98;101305.94;5111800;28;20044;-65
2021/04/25 00:27:32;;;;;;;7.00;3.60;;;;;;;5.17;54.20;101304.72;5108780;22;20413;-65
2021/04/25 00:29:59;;;;;;;6.70;2.83;;;;;;;5.10;55.20;101298.53;5055802;28;20048;-66
2021/04/25 00:32:26;;;;;;;7.72;3.25;;;;;;;5.03;55.10;101298.75;5055762;28;20049;-65
2021/04/25 00:34:55;;;;;;;16.08;3.92;;;;;;;4.96;55.70;101303.63;5055631;28;20044;-66
2021/04/25 00:37:22;;;;;;;7.20;3.33;;;;;;;4.87;56.73;101300.50;5055792;28;20401;-66
2021/04/25 00:39:49;;;;;;;7.05;3.63;;;;;;;4.83;56.17;101299.34;5070217;28;20052;-65
2021/04/25 00:42:16;;;;;;;5.97;3.35;;;;;;;4.80;56.73;101299.00;5073860;28;20049;-65
2021/04/25 00:44:44;;;;;;;7.03;2.85;;;;;;;4.76;56.61;101309.72;5075572;28;20056;-66
2021/04/25 00:47:12;;;;;;;4.10;2.47;;;;;;;4.71;56.16;101301.38;5075239;28;20056;-65
2021/04/25 00:49:39;;;;;;;7.80;3.22;;;;;;;4.65;56.88;101303.22;5075555;28;20378;-65
2021/04/25 00:52:07;;;;;;;5.85;2.95;;;;;;;4.60;56.52;101297.63;5068321;28;20053;-65
2021/04/25 00:54:35;;;;;;;7.93;3.40;;;;;;;4.51;57.14;101292.78;5055116;28;20078;-65
2021/04/25 00:57:03;;;;;;;7.63;2.88;;;;;;;4.44;57.04;101291.06;5054914;28;20485;-65
2021/04/25 00:59:30;;;;;;;5.82;2.90;;;;;;;4.40;57.13;101300.09;5055038;28;20052;-65
2021/04/25 01:01:57;;;;;;;6.57;2.88;;;;;;;4.34;57.41;101295.59;5055457;28;20052;-65
2021/04/25 01:04:24;;;;;;;9.98;3.30;;;;;;;4.28;58.44;101297.41;5054886;28;20064;-65
2021/04/25 01:06:51;;;;;;;6.45;2.70;;;;;;;4.21;58.29;101300.34;5060386;28;20044;-65
2021/04/25 01:09:18;;;;;;;6.80;3.10;;;;;;;4.16;59.05;101305.78;5073485;28;20060;-64
2021/04/25 01:11:45;;;;;;;6.13;2.85;;;;;;;4.15;59.55;101297.78;5055215;28;20057;-64
2021/04/25 01:14:12;;;;;;;7.70;3.53;;;;;;;4.09;59.05;101302.34;5055005;28;20049;-66
2021/04/25 01:16:39;;;;;;;7.90;3.13;;;;;;;4.05;59.34;101309.44;5055111;28;20400;-65
2021/04/25 01:19:06;;;;;;;7.15;3.38;;;;;;;4.00;59.98;101304.69;5054890;28;20057;-65
2021/04/25 01:21:34;;;;;;;6.72;3.17;;;;;;;3.98;59.89;101304.13;5055053;28;20497;-65
2021/04/25 01:24:01;;;;;;;5.90;3.05;;;;;;;3.92;60.01;101304.28;5059219;28;20048;-65
2021/04/25 01:26:28;;;;;;;7.30;3.35;;;;;;;3.87;60.37;101299.53;5074691;28;20063;-65
2021/04/25 01:28:55;;;;;;;6.50;3.05;;;;;;;3.87;60.29;101307.78;5073484;28;20048;-65
2021/04/25 01:31:22;;;;;;;7.07;2.88;;;;;;;3.85;60.55;101307.19;5074510;28;20056;-65
2021/04/25 01:33:49;;;;;;;5.88;3.10;;;;;;;3.82;60.37;101299.41;5074312;28;20048;-65
2021/04/25 01:36:16;;;;;;;7.35;3.60;;;;;;;3.77;60.25;101313.94;5074464;28;20048;-65
2021/04/25 01:38:44;;;;;;;7.53;3.35;;;;;;;3.70;59.99;101307.78;5073840;28;20057;-66
2021/04/25 01:41:10;;;;;;;8.57;3.22;;;;;;;3.62;60.11;101311.75;5073435;28;20056;-65
2021/04/25 01:43:37;;;;;;;8.02;3.67;;;;;;;3.59;60.63;101309.50;5074416;28;20382;-65
2021/04/25 01:46:04;;;;;;;8.95;3.70;;;;;;;3.55;61.06;101305.56;5073912;28;20056;-65
2021/04/25 01:48:31;;;;;;;10.70;3.55;;;;;;;3.52;60.76;101306.06;5073757;28;20075;-65
2021/04/25 01:50:58;;;;;;;9.68;3.53;;;;;;;3.49;61.04;101305.72;5074008;28;20427;-65
2021/04/25 01:53:25;;;;;;;9.60;3.20;;;;;;;3.46;60.78;101301.53;5074338;28;20044;-65
2021/04/25 01:55:53;;;;;;;6.57;4.32;;;;;;;3.41;61.22;101299.50;5073932;28;20048;-65
2021/04/25 01:58:20;;;;;;;8.23;3.70;;;;;;;3.39;62.03;101298.09;5057725;28;20064;-65
2021/04/25 02:00:47;;;;;;;8.88;3.72;;;;;;;3.34;61.88;101298.84;5053867;28;20052;-65
2021/04/25 02:03:15;;;;;;;6.03;3.25;;;;;;;3.30;61.58;101307.81;5067399;28;20420;-65
2021/04/25 02:05:43;;;;;;;8.95;3.55;;;;;;;3.28;61.53;101305.31;5073612;28;20052;-65
2021/04/25 02:08:11;;;;;;;6.93;3.00;;;;;;;3.20;62.34;101314.81;5085049;22;20417;-65
2021/04/25 02:10:39;;;;;;;7.82;3.80;;;;;;;3.16;62.68;101313.63;5073977;28;20059;-65
2021/04/25 02:13:08;;;;;;;11.02;3.50;;;;;;;3.14;62.48;101307.53;5073226;28;20511;-65
2021/04/25 02:15:35;;;;;;;8.93;3.53;;;;;;;3.12;62.82;101306.09;5073250;28;20063;-65
2021/04/25 02:18:02;;;;;;;8.45;3.13;;;;;;;3.16;63.42;101302.59;5073737;28;20056;-65
2021/04/25 02:20:30;;;;;;;9.93;3.45;;;;;;;3.22;63.32;101309.88;5073097;28;20053;-65
2021/04/25 02:22:57;;;;;;;9.65;3.70;;;;;;;3.21;62.20;101305.47;5073110;28;20381;-65
2021/04/25 02:25:24;;;;;;;7.35;3.10;;;;;;;3.24;62.59;101309.66;5058969;28;20056;-65
2021/04/25 02:27:52;;;;;;;8.45;3.35;;;;;;;3.33;62.77;101304.59;5053725;28;20053;-65
2021/04/25 02:30:22;;;;;;;6.00;3.45;;;;;;;3.36;62.56;101306.84;5052828;28;20072;-65
2021/04/25 02:32:50;;;;;;;11.50;3.65;;;;;;;3.43;61.88;101299.28;5052815;28;20063;-66
2021/04/25 02:35:18;;;;;;;7.07;3.28;;;;;;;3.50;61.51;101305.47;5053149;28;20045;-65
2021/04/25 02:37:48;;;;;;;8.05;3.25;;;;;;;3.56;61.59;101309.16;5053158;28;20060;-66
2021/04/25 02:40:18;;;;;;;8.27;3.17;;;;;;;3.58;60.55;101299.56;5033659;28;20057;-65
2021/04/25 02:42:45;;;;;;;;;;;;;;;3.59;60.85;101301.25;5033765;28;20080;-65
2021/04/25 02:45:15;;;;;;;7.60;3.50;;;;;;;3.58;61.03;101307.81;5033054;28;19921;-65
2021/04/25 02:47:45;;;;;;;9.38;4.13;;;;;;;3.58;61.48;101305.06;5033532;28;20053;-65
2021/04/25 02:50:13;;;;;;;;;;;;;;;3.64;61.01;101304.06;5033557;28;20509;-65
2021/04/25 02:52:43;;;;;;;7.18;3.05;;;;;;;3.71;61.40;101308.59;5033207;28;20273;-65
2021/04/25 02:55:11;;;;;;;9.57;4.60;;;;;;;3.71;61.38;101303.91;5052328;28;20051;-65
2021/04/25 02:57:39;;;;;;;6.88;3.47;;;;;;;3.79;60.98;101300.75;5037061;28;20049;-65
2021/04/25 03:00:09;;;;;;;9.68;3.67;;;;;;;3.82;61.49;101299.41;5032700;28;20068;-65
2021/04/25 03:02:36;;;;;;;7.32;3.85;;;;;;;3.88;61.57;101306.69;5032978;28;20079;-65
2021/04/25 03:05:04;;;;;;;8.38;3.58;;;;;;;3.94;62.37;101308.44;5032955;28;20049;-65
2021/04/25 03:07:31;;;;;;;7.60;3.90;;;;;;;4.04;62.38;101308.63;5032485;28;20517;-65
2021/04/25 03:09:58;;;;;;;7.10;3.83;;;;;;;4.14;61.79;101302.44;5032771;28;20406;-65
2021/04/25 03:12:24;;;;;;;8.43;4.40;;;;;;;4.20;62.19;101293.19;5047751;28;20059;-65
2021/04/25 03:14:51;;;;;;;9.95;4.13;;;;;;;4.32;61.30;101297.75;5052300;28;20063;-65
2021/04/25 03:17:21;;;;;;;7.57;3.80;;;;;;;4.38;61.09;101297.56;5052825;28;20472;-65
2021/04/25 03:19:50;;;;;;;7.82;3.85;;;;;;;4.43;61.19;101288.53;5052394;28;20060;-65
2021/04/25 03:22:18;;;;;;;8.60;3.58;;;;;;;4.50;60.91;101288.38;5052259;28;20409;-65
2021/04/25 03:24:45;;;;;;;7.28;3.88;;;;;;;4.53;60.57;101290.63;5040277;28;20405;-65
2021/04/25 03:27:14;;;;;;;11.43;4.28;;;;;;;4.60;60.87;101286.59;5032518;28;20054;-65
2021/04/25 03:29:41;;;;;;;9.60;3.95;;;;;;;4.65;60.74;101294.09;5032580;28;20065;-65
2021/04/25 03:32:08;;;;;;;7.38;3.85;;;;;;;4.70;61.18;101298.84;5037251;28;20045;-65
2021/04/25 03:34:36;;;;;;;9.98;4.35;;;;;;;4.75;61.03;101302.53;5052548;28;20492;-65
2021/04/25 03:37:05;;;;;;;9.48;3.97;;;;;;;4.81;61.13;101289.66;5052785;28;20060;-65
2021/04/25 03:39:33;;;;;;;8.02;4.20;;;;;;;4.81;60.94;101290.47;5052272;28;20049;-65
2021/04/25 03:42:00;;;;;;;11.40;4.55;;;;;;;4.88;61.09;101293.88;5050547;28;20504;-65
2021/04/25 03:44:27;;;;;;;8.73;3.47;;;;;;;4.94;60.34;101297.53;5054607;28;20076;-65
2021/04/25 03:46:54;;;;;;;6.05;3.65;;;;;;;4.98;60.08;101289.59;5056289;28;20478;-65
2021/04/25 03:49:21;;;;;;;8.38;3.72;;;;;;;5.02;60.40;101296.25;5056303;28;20063;-65
2021/04/25 03:51:48;;;;;;;8.98;3.60;;;;;;;5.05;59.85;101284.69;5056282;28;20068;-65
2021/04/25 03:54:15;;;;;;;8.98;3.38;;;;;;;5.05;60.26;101285.53;5056749;28;20053;-65
2021/04/25 03:56:43;;;;;;;9.05;3.92;;;;;;;5.08;59.94;101289.69;5049391;28;20064;-65
2021/04/25 03:59:10;;;;;;;6.80;4.18;;;;;;;5.12;60.21;101285.31;5036371;28;20060;-65
2021/04/25 04:01:37;;;;;;;13.45;4.38;;;;;;;5.15;60.29;101273.78;5036138;28;20497;-65
2021/04/25 04:04:05;;;;;;;9.00;3.80;;;;;;;5.23;60.11;101276.06;5036558;28;20049;-65
2021/04/25 04:06:32;;;;;;;7.90;3.80;;;;;;;5.21;60.26;101280.19;5036233;28;20050;-65
2021/04/25 04:08:59;;;;;;;8.70;4.25;;;;;;;5.20;60.32;101284.84;5036303;28;20057;-65
2021/04/25 04:11:26;;;;;;;8.57;4.50;;;;;;;5.21;60.50;101292.06;5041121;28;20053;-65
2021/04/25 04:13:53;;;;;;;8.77;3.65;;;;;;;5.27;60.11;101291.03;5055673;28;20056;-65
2021/04/25 04:16:20;;;;;;;7.15;3.80;;;;;;;5.28;60.18;101287.16;5055545;28;20049;-65
2021/04/25 04:18:47;;;;;;;8.60;4.30;;;;;;;5.36;60.77;101290.59;5055529;28;20061;-65
2021/04/25 04:21:14;;;;;;;7.43;4.20;;;;;;;5.44;59.84;101287.34;5055858;28;20056;-65
2021/04/25 04:23:41;;;;;;;7.90;3.47;;;;;;;5.49;59.84;101285.47;5051653;28;20045;-65
2021/04/25 04:26:08;;;;;;;7.95;3.95;;;;;;;5.60;59.84;101282.81;5035165;28;20049;-65
2021/04/25 04:28:34;;;;;;;7.88;4.10;;;;;;;5.68;59.46;101282.34;5035590;28;20053;-65
2021/04/25 04:31:02;;;;;;;9.80;4.45;;;;;;;5.74;59.22;101278.53;5035282;28;20061;-65
2021/04/25 04:33:29;;;;;;;10.00;4.45;;;;;;;5.79;59.25;101286.03;5035933;28;20053;-65
2021/04/25 04:35:57;;;;;;;8.35;4.15;;;;;;;5.83;58.90;101278.88;5035351;28;20060;-65
2021/04/25 04:38:23;;;;;;;10.30;4.20;;;;;;;5.86;59.09;101286.66;5037551;28;20053;-65
2021/04/25 04:40:50;;;;;;;9.23;4.10;;;;;;;5.86;58.87;101279.19;5055670;28;20074;-65
2021/04/25 04:43:17;;;;;;;9.52;4.80;;;;;;;5.96;59.19;101284.00;5055114;28;20057;-65
2021/04/25 04:45:44;;;;;;;11.05;5.38;;;;;;;6.02;59.05;101282.94;5054649;28;20049;-65
2021/04/25 04:48:14;;;;;;;9.50;4.97;;;;;;;6.07;58.10;101280.22;5055270;28;20053;-65
2021/04/25 04:50:41;;;;;;;;;;;;;;;6.13;57.68;101288.56;5055815;28;20059;-65
2021/04/25 04:53:07;;;;;;;11.50;4.55;;;;;;;6.15;57.93;101289.13;5051619;28;19921;-66
2021/04/25 04:55:34;;;;;;;10.38;4.85;;;;;;;6.16;58.22;101279.75;5034281;28;20049;-65
2021/04/25 04:58:01;;;;;;;8.13;4.30;;;;;;;6.21;58.07;101293.59;5035689;28;20049;-65
2021/04/25 05:00:28;;;;;;;8.40;4.93;;;;;;;6.31;57.93;101296.44;5035067;28;20064;-65
2021/04/25 05:02:55;;;;;;;11.00;4.90;;;;;;;6.39;58.02;101297.91;5048841;28;20493;-65
2021/04/25 05:05:23;;;;;;;9.48;5.55;;;;;;;6.47;57.47;101301.00;5055181;28;20057;-66
2021/04/25 05:07:50;;;;;;;11.65;5.60;;;;;;;6.58;56.98;101301.88;5054334;28;20076;-66
2021/04/25 05:10:17;;;;;;;11.00;5.90;;;;;;;6.70;56.01;101310.00;5054898;28;20049;-66
2021/04/25 05:12:44;;;;;;;10.07;5.60;;;;;;;6.81;55.80;101308.13;5036832;28;20065;-66
2021/04/25 05:15:11;;;;;;;10.98;5.35;;;;;;;6.90;55.64;101309.25;5044360;28;20493;-65
2021/04/25 05:17:38;;;;;;;8.43;5.03;;;;;;;6.93;55.85;101311.50;5035539;28;20050;-65
2021/04/25 05:20:06;;;;;;;8.85;5.32;;;;;;;7.06;55.56;101307.41;5052096;28;20057;-66
2021/04/25 05:22:36;;;;;;;9.55;5.50;;;;;;;7.20;55.37;101310.50;5054687;28;20056;-65
2021/04/25 05:25:03;;;;;;;;;;;;;;;7.32;54.98;101305.56;5038985;28;20053;-65
2021/04/25 05:27:30;;;;;;;8.35;4.80;;;;;;;7.39;53.99;101305.28;5034461;28;19925;-66
2021/04/25 05:29:57;;;;;;;12.70;5.75;;;;;;;7.49;54.70;101300.59;5034348;28;20413;-65
2021/04/25 05:32:26;;;;;;;10.15;5.13;;;;;;;7.58;53.88;101308.41;5034582;28;20057;-66
2021/04/25 05:34:53;;;;;;;9.55;6.07;;;;;;;7.66;53.19;101307.84;5042577;28;20049;-65
2021/04/25 05:37:20;;;;;;;8.32;5.25;;;;;;;7.75;52.76;101303.47;5064262;28;20060;-65
2021/04/25 05:39:47;;;;;;;8.45;5.45;;;;;;;7.86;52.52;101309.84;5052113;28;20060;-66
2021/04/25 05:42:14;;;;;;;9.55;5.13;;;;;;;8.02;52.13;101321.78;5044213;28;20413;-65
2021/04/25 05:44:41;;;;;;;10.90;5.10;;;;;;;8.13;51.71;101317.91;5034458;28;20050;-66
2021/04/25 05:47:08;;;;;;;10.23;5.22;;;;;;;8.21;50.88;101317.34;5034412;28;20394;-65
2021/04/25 05:49:35;;;;;;;9.93;5.78;;;;;;;8.34;49.87;101321.50;5034227;28;20049;-65
2021/04/25 05:52:02;;;;;;;10.13;5.80;;;;;;;8.42;50.36;101318.22;5034317;28;20054;-66
2021/04/25 05:54:29;;;;;;;9.98;5.55;;;;;;;8.46;49.59;101324.88;5034111;28;20437;-65
2021/04/25 05:56:56;;;;;;;8.85;5.25;;;;;;;8.56;50.18;101328.72;5036759;28;20479;-65
2021/04/25 05:59:23;;;;;;;9.70;5.93;;;;;;;8.67;50.01;101331.22;5034038;28;20058;-65
2021/04/25 06:01:50;;;;;;;12.38;5.72;;;;;;;8.77;49.85;101329.53;5042319;28;20053;-65
2021/04/25 06:04:18;;;;;;;8.85;5.00;;;;;;;8.89;48.76;101330.88;5053681;28;20056;-65
2021/04/25 06:06:45;;;;;;;8.07;4.97;;;;;;;8.94;47.43;101330.03;5052397;28;20057;-65
2021/04/25 06:09:12;;;;;;;7.65;4.80;;;;;;;9.02;47.03;101325.84;5054486;28;20049;-65
2021/04/25 06:11:39;;;;;;;8.02;4.45;;;;;;;9.09;46.59;101334.72;5052304;28;20041;-65
2021/04/25 06:14:07;;;;;;;7.28;4.43;;;;;;;9.18;45.61;101330.25;5049458;28;20052;-65
2021/04/25 06:16:34;;;;;;;7.50;4.25;;;;;;;9.25;44.41;101336.31;5036088;28;20479;-65
2021/04/25 06:19:02;;;;;;;7.55;3.58;;;;;;;9.36;44.67;101331.53;5044573;28;20053;-65
2021/04/25 06:21:29;;;;;;;6.32;3.97;;;;;;;9.43;43.30;101336.78;5053494;28;20053;-65
2021/04/25 06:23:56;;;;;;;7.32;4.45;;;;;;;9.49;43.93;101336.50;5047791;28;20045;-65
2021/04/25 06:26:23;;;;;;;6.53;4.18;;;;;;;9.58;43.75;101339.50;5033719;28;20374;-67
2021/04/25 06:28:50;;;;;;;9.88;3.80;;;;;;;9.68;42.59;101346.94;5033567;28;20060;-65
2021/04/25 06:31:17;;;;;;;8.57;4.20;;;;;;;9.77;42.05;101352.78;5033670;28;20064;-65
2021/04/25 06:33:45;;;;;;;5.65;4.03;;;;;;;9.81;41.41;101354.69;5040310;28;20053;-66
2021/04/25 06:36:12;;;;;;;10.20;4.60;;;;;;;9.88;40.75;101351.56;5046565;28;20057;-65
2021/04/25 06:38:39;;;;;;;5.53;3.90;;;;;;;9.91;40.88;101354.63;5033320;28;20387;-65
2021/04/25 06:41:06;;;;;;;8.00;3.40;;;;;;;9.95;40.34;101360.41;5032865;28;20072;-65
2021/04/25 06:43:33;;;;;;;8.00;3.50;;;;;;;9.89;40.25;101361.56;5033318;28;20053;-66
2021/04/25 06:46:01;;;;;;;8.00;3.90;;;;;;;9.98;39.63;101365.44;5035533;28;20134;-66
2021/04/25 06:48:29;;;;;;;7.75;3.55;;;;;;;10.00;39.96;101357.63;5053158;28;20053;-66
2021/04/25 06:50:55;;;;;;;6.63;3.65;;;;;;;10.03;38.96;101359.81;5051979;28;20062;-66
2021/04/25 06:53:25;;;;;;;5.30;3.55;;;;;;;10.16;38.87;101359.19;5053001;28;20053;-66
2021/04/25 06:55:52;;;;;;;9.65;4.18;;;;;;;10.33;38.11;101369.06;5043839;28;20501;-66
2021/04/25 06:58:19;;;;;;;7.03;3.95;;;;;;;10.36;38.10;101363.78;5032979;28;20053;-64
2021/04/25 07:00:46;;;;;;;7.88;3.67;;;;;;;10.55;37.95;101366.66;5033275;28;20060;-63
2021/04/25 07:03:15;;;;;;;5.35;3.88;;;;;;;10.72;37.66;101357.88;5051678;28;20052;-63
2021/04/25 07:05:43;;;;;;;7.30;4.10;;;;;;;10.97;36.91;101364.31;5052725;28;20477;-62
2021/04/25 07:08:10;;;;;;;6.00;3.70;;;;;;;11.08;36.10;101365.03;5049208;28;20045;-61
2021/04/25 07:10:37;;;;;;;7.72;4.00;;;;;;;11.22;36.20;101363.19;5044393;28;20048;-61
2021/04/25 07:13:03;;;;;;;5.97;3.65;;;;;;;11.30;35.63;101367.31;5052735;28;20049;-59
2021/04/25 07:15:30;;;;;;;6.47;3.65;;;;;;;11.45;35.17;101369.91;5052534;28;20048;-61
2021/04/25 07:17:58;;;;;;;6.68;3.50;;;;;;;11.68;34.61;101371.00;5052067;28;20053;-61
2021/04/25 07:20:25;;;;;;;6.47;3.65;;;;;;;11.90;34.59;101377.97;5052429;28;20053;-62
2021/04/25 07:22:53;;;;;;;7.30;3.97;;;;;;;12.31;33.29;101363.41;5052656;28;20060;-61
2021/04/25 07:25:20;;;;;;;5.50;3.05;;;;;;;12.48;33.25;101374.00;5035229;28;20050;-61
2021/04/25 07:27:47;;;;;;;6.60;3.10;;;;;;;12.70;33.31;101370.53;5032694;28;20398;-62
2021/04/25 07:30:15;;;;;;;5.53;3.42;;;;;;;12.82;33.10;101373.69;5032637;28;20045;-61
2021/04/25 07:32:42;;;;;;;5.82;3.47;;;;;;;12.93;32.81;101371.53;5036145;28;20049;-61
2021/04/25 07:35:10;;;;;;;5.57;3.38;;;;;;;12.90;32.05;101372.16;5052393;28;20052;-61
2021/04/25 07:37:38;;;;;;;7.38;3.50;;;;;;;12.88;32.64;101366.03;5051809;28;20053;-61
2021/04/25 07:40:08;;;;;;;7.47;3.75;;;;;;;12.93;32.45;101369.53;5050169;28;20053;-62
2021/04/25 07:42:36;;;;;;;7.35;4.28;;;;;;;13.04;32.58;101363.75;5051563;28;20075;-61
2021/04/25 07:45:04;;;;;;;8.00;4.45;;;;;;;13.13;32.58;101373.13;5052035;28;20409;-61
2021/04/25 07:47:31;;;;;;;8.65;3.25;;;;;;;13.27;31.95;101371.16;5042705;28;20054;-61
2021/04/25 07:49:57;;;;;;;5.88;3.42;;;;;;;13.48;31.89;101371.59;5032571;28;20445;-61
2021/04/25 07:52:25;;;;;;;5.90;4.00;;;;;;;13.59;31.39;101373.03;5045485;28;20390;-61
2021/04/25 07:54:52;;;;;;;6.65;3.38;;;;;;;13.90;31.28;101374.31;5038539;28;20505;-62
2021/04/25 07:57:20;;;;;;;6.38;3.78;;;;;;;14.21;30.66;101364.06;5037613;28;20056;-62
2021/04/25 07:59:50;;;;;;;6.60;3.50;;;;;;;14.24;30.15;101365.41;5031900;28;20056;-62
2021/04/25 08:02:17;;;;;;;;;;;;;;;14.34;29.62;101367.09;5032695;28;20058;-62
2021/04/25 08:04:44;;;;;;;7.03;3.53;;;;;;;14.25;30.30;101377.44;5031929;28;19921;-62
2021/04/25 08:07:14;;;;;;;5.85;3.25;;;;;;;14.20;29.51;101372.78;5031350;28;20076;-61
2021/04/25 08:09:41;;;;;;;7.03;3.45;;;;;;;14.12;30.21;101365.13;5033023;28;20052;-61
2021/04/25 08:12:09;;;;;;;7.18;3.75;;;;;;;14.29;29.64;101368.06;5049797;28;20076;-61
2021/04/25 08:14:37;;;;;;;6.35;3.40;;;;;;;14.66;29.08;101362.41;5051177;28;20053;-61
2021/04/25 08:17:05;;;;;;;5.72;4.15;;;;;;;14.91;28.43;101363.72;5051573;28;20521;-62
2021/04/25 08:19:32;;;;;;;7.93;3.38;;;;;;;15.12;28.39;101369.59;5051621;28;20462;-62
2021/04/25 08:22:02;;;;;;;5.85;3.33;;;;;;;15.22;28.24;101370.16;5052267;28;20059;-62
2021/04/25 08:24:29;;;;;;;;;;;;;;;15.33;28.46;101373.50;5049348;28;20060;-62
2021/04/25 08:26:56;;;;;;;7.20;3.60;;;;;;;16.05;28.09;101367.72;5052071;28;19944;-62
2021/04/25 08:29:23;;;;;;;7.18;3.75;;;;;;;16.18;27.04;101364.75;5052618;28;20076;-62
2021/04/25 08:31:53;;;;;;;9.18;3.47;;;;;;;16.32;26.91;101366.56;5055301;28;20052;-62
2021/04/25 08:34:23;;;;;;;7.68;3.65;;;;;;;16.43;27.00;101367.88;5055060;28;20053;-62
2021/04/25 08:36:50;;;;;;;6.70;3.67;;;;;;;17.22;25.72;101362.91;5055629;28;20051;-62
2021/04/25 08:39:17;;;;;;;7.85;3.63;;;;;;;17.53;25.43;101358.94;5054212;28;20045;-62
2021/04/25 08:41:45;;;;;;;7.82;3.50;;;;;;;18.67;24.14;101365.34;5050107;28;20060;-63
2021/04/25 08:44:21;;;;;;;6.10;3.20;;;;;;;18.59;23.59;101366.25;5055027;28;20057;-63
2021/04/25 08:46:49;;;;;;;5.32;3.05;;;;;;;18.25;24.11;101356.97;5054806;28;20048;-63
2021/04/25 08:49:19;;;;;;;6.28;3.13;;;;;;;18.02;25.04;101377.03;5053896;28;20073;-62
2021/04/25 08:51:46;;;;;;;5.38;2.72;;;;;;;18.09;24.42;101367.22;5049619;28;20061;-63
2021/04/25 08:54:15;;;;;;;5.78;3.22;;;;;;;17.85;24.58;101383.63;5055079;28;20053;-63
2021/04/25 08:56:43;;;;;;;5.50;2.70;;;;;;;17.71;24.93;101373.75;5054540;28;20071;-62
2021/04/25 08:59:12;;;;;;;7.13;2.97;;;;;;;17.47;24.61;101377.19;5055113;28;20505;-62
2021/04/25 09:01:39;;;;;;;11.75;3.30;;;;;;;16.82;25.71;101377.28;5055379;28;20524;-61
2021/04/25 09:04:06;;;;;;;7.50;2.78;;;;;;;16.43;25.96;101384.75;5054439;28;20076;-60
2021/04/25 09:06:34;;;;;;;6.13;3.05;;;;;;;16.43;26.41;101384.75;5052434;28;20414;-62
2021/04/25 09:09:04;;;;;;;6.60;2.75;;;;;;;16.30;26.74;101374.50;5054320;28;20433;-60
2021/04/25 09:11:36;;;;;;;7.22;2.67;;;;;;;16.21;26.62;101375.34;5054808;28;20053;-62
2021/04/25 09:14:29;;;;;;;5.43;3.35;;;;;;;16.13;26.99;101380.97;5047252;28;20056;-62
2021/04/25 09:16:59;;;;;;;6.63;3.00;;;;;;;16.11;26.75;101377.66;5010483;28;20437;-62
2021/04/25 09:19:46;;;;;;;;;;;;;;;15.98;27.23;101382.25;5035490;28;20053;-62
2021/04/25 09:22:17;;;;;;;6.68;3.22;;;;;;;16.03;27.41;101382.91;5034601;28;19921;-62
2021/04/25 09:24:44;;;;;;;6.28;3.00;;;;;;;15.97;27.03;101383.41;5045378;28;20064;-63
2021/04/25 09:27:11;;;;;;;6.43;3.08;;;;;;;15.91;27.52;101384.72;5054204;28;20048;-62
2021/04/25 09:29:49;;;;;;;5.07;2.90;;;;;;;15.91;27.31;101373.47;5053804;28;20053;-62
2021/04/25 09:32:17;;;;;;;7.00;3.15;;;;;;;15.98;27.49;101373.81;5054076;28;20094;-62
2021/04/25 09:34:44;;;;;;;5.03;2.58;;;;;;;16.05;27.33;101374.16;5053986;28;20049;-63
2021/04/25 09:37:14;;;;;;;5.15;2.67;;;;;;;16.30;27.62;101380.13;5053953;28;20053;-62
2021/04/25 09:40:00;;;;;;;5.32;2.80;;;;;;;16.63;27.11;101367.19;5045716;28;20049;-63
2021/04/25 09:42:27;;;;;;;8.32;2.78;;;;;;;16.98;26.10;101369.13;5048750;28;20057;-63
2021/04/25 09:44:54;;;;;;;6.45;2.97;;;;;;;17.23;25.49;101373.00;5033975;28;20061;-62
2021/04/25 09:47:31;;;;;;;4.32;2.55;;;;;;;17.37;24.90;101373.59;5034017;28;20049;-64
2021/04/25 09:50:00;;;;;;;6.43;3.30;;;;;;;18.82;23.16;101369.53;5034110;28;20052;-63
2021/04/25 09:52:37;;;;;;;7.15;3.20;;;;;;;21.43;20.22;101351.19;5034093;28;20053;-63
2021/04/25 09:55:25;;;;;;;5.57;2.30;;;;;;;21.01;20.13;101359.38;5033704;28;20053;-63
2021/04/25 09:57:54;;;;;;;4.47;2.42;;;;;;;20.74;20.57;101361.09;5048410;28;20371;-62
2021/04/25 10:00:21;;;;;;;6.10;3.00;;;;;;;23.44;17.66;101361.00;5034061;28;20512;-63
2021/04/25 10:02:59;;;;;;;4.90;2.30;;;;;;;23.38;18.35;101350.34;5034158;28;20410;-63
2021/04/25 10:05:28;;;;;;;3.60;2.97;;;;;;;26.36;15.03;101347.78;5033919;28;20053;-61
2021/04/25 10:07:58;;;;;;;4.55;2.90;;;;;;;29.13;13.49;101346.16;5034121;28;20076;-62
2021/04/25 10:10:32;;;;;;;5.20;3.08;;;;;;;29.34;12.28;101350.91;5033616;28;20060;-61
2021/04/25 10:13:00;;;;;;;4.70;2.90;;;;;;;32.06;10.54;101339.72;5040217;28;20422;-62
2021/04/25 10:15:27;;;;;;;3.53;2.67;;;;;;;33.77;8.99;101339.84;5052217;28;20057;-61
2021/04/25 10:17:57;;;;;;;5.05;2.55;;;;;;;34.60;8.17;101341.13;5053205;28;20489;-62
2021/04/25 10:20:24;;;;;;;6.95;2.47;;;;;;;34.59;9.23;101333.75;5052835;28;20060;-62
2021/04/25 10:22:52;;;;;;;4.47;2.20;;;;;;;33.28;9.19;101334.09;5034422;28;20071;-64
2021/04/25 10:25:30;;;;;;;6.32;2.25;;;;;;;31.39;10.11;101340.50;5034253;28;20049;-64
2021/04/25 10:28:01;;;;;;;4.95;2.25;;;;;;;29.50;11.29;101333.97;5033348;28;20053;-63
2021/04/25 10:30:34;;;;;;;3.47;2.45;;;;;;;28.52;12.16;101343.66;5033442;28;20057;-63
2021/04/25 10:33:02;;;;;;;5.65;2.50;;;;;;;27.10;13.61;101337.75;5033571;28;20058;-63
2021/04/25 10:35:32;;;;;;;7.30;2.72;;;;;;;26.13;14.29;101331.78;4984253;28;20049;-63
2021/04/25 10:38:02;;;;;;;5.00;2.53;;;;;;;25.80;14.88;101333.59;5033364;28;20050;-63
2021/04/25 10:40:36;;;;;;;6.03;2.60;;;;;;;25.59;15.40;101324.91;5034421;28;20049;-63
2021/04/25 10:43:05;;;;;;;4.32;3.30;;;;;;;25.98;14.79;101325.16;5033175;28;20072;-63
2021/04/25 10:45:35;;;;;;;4.50;2.90;;;;;;;25.56;14.80;101320.00;5033301;28;20520;-63
2021/04/25 10:48:23;;;;;;;5.47;2.47;;;;;;;24.73;15.76;101321.28;5015224;28;20421;-63
2021/04/25 10:50:55;;;;;;;5.32;2.60;;;;;;;24.37;15.90;101318.81;5015676;28;20062;-62
2021/04/25 10:53:27;;;;;;;4.97;3.30;;;;;;;27.43;13.96;101310.81;5032181;28;20056;-62
2021/04/25 10:56:31;;;;;;;6.43;2.40;;;;;;;26.35;14.62;101314.72;5033559;28;20049;-63
2021/04/25 10:59:23;;;;;;;4.53;2.38;;;;;;;25.17;15.49;101317.63;5038077;28;20049;-62
2021/04/25 11:01:52;;;;;;;6.57;3.20;;;;;;;28.47;13.47;101309.66;5024173;28;20053;-63
2021/04/25 11:04:56;;;;;;;5.30;3.38;;;;;;;31.74;10.78;101318.09;5033957;28;20045;-63
2021/04/25 11:07:41;;;;;;;6.40;2.72;;;;;;;33.58;9.09;101318.47;5032691;28;20060;-63
2021/04/25 11:10:09;;;;;;;4.30;2.78;;;;;;;34.97;8.66;101304.81;5033105;28;20049;-63
2021/04/25 11:12:43;;;;;;;4.22;3.10;;;;;;;36.34;8.55;101297.06;5033632;28;20049;-64
2021/04/25 11:15:27;;;;;;;5.85;2.80;;;;;;;37.57;6.43;101297.34;5032560;28;20410;-64
2021/04/25 11:17:55;;;;;;;5.18;3.00;;;;;;;38.67;6.88;101289.72;5024413;28;20057;-64
2021/04/25 11:20:32;;;;;;;5.57;2.63;;;;;;;39.48;5.36;101288.97;5032532;28;20064;-64
2021/04/25 11:23:00;;;;;;;6.80;2.70;;;;;;;39.66;5.18;101287.19;5032497;28;20052;-64
2021/04/25 11:25:29;;;;;;;4.85;2.38;;;;;;;40.24;5.21;101273.22;5033227;28;20053;-64
2021/04/25 11:27:57;;;;;;;5.03;3.17;;;;;;;40.04;5.51;101280.53;5032333;28;20049;-64
2021/04/25 11:30:42;;;;;;;5.43;3.08;;;;;;;40.52;5.47;101289.09;5032216;28;20054;-64
2021/04/25 11:33:37;;;;;;;4.82;2.80;;;;;;;41.24;4.63;101278.25;5015113;28;20046;-65
2021/04/25 11:36:38;;;;;;;4.65;2.60;;;;;;;41.73;5.17;101282.34;5031702;28;20053;-63
2021/04/25 11:39:06;;;;;;;3.80;2.60;;;;;;;41.71;4.93;101276.22;5034109;28;20057;-64